sensor_id;sensor_type;location;lat;lon;timestamp;pressure;altitude;pressure_sealevel;temperature;humidity
42603;BME280;28233;55.748;48.752;2023-04-26T00:01:02;98691.03;;;11.78;100.00
42603;BME280;28233;55.748;48.752;2023-04-26T00:03:08;98691.25;;;11.73;100.00
42603;BME280;28233;55.748;48.752;2023-04-26T00:05:11;98687.84;;;11.76;100.00
42603;BME280;28233;55.748;48.752;2023-04-26T00:07:15;98687.47;;;11.78;100.00
42603;BME280;28233;55.748;48.752;2023-04-26T00:09:18;98689.41;;;11.77;100.00
42603;BME280;28233;55.748;48.752;2023-04-26T00:11:21;98669.03;;;11.78;100.00
42603;BME280;28233;55.748;48.752;2023-04-26T00:13:24;98663.41;;;11.75;100.00
42603;BME280;28233;55.748;48.752;2023-04-26T00:15:27;98658.00;;;11.78;100.00
42603;BME280;28233;55.748;48.752;2023-04-26T00:17:29;98650.56;;;11.79;100.00
42603;BME280;28233;55.748;48.752;2023-04-26T00:19:33;98638.38;;;11.80;100.00
42603;BME280;28233;55.748;48.752;2023-04-26T00:21:36;98640.59;;;11.74;100.00
42603;BME280;28233;55.748;48.752;2023-04-26T00:23:39;98638.31;;;11.76;100.00
42603;BME280;28233;55.748;48.752;2023-04-26T00:25:42;98644.16;;;11.75;100.00
42603;BME280;28233;55.748;48.752;2023-04-26T00:27:44;98631.56;;;11.74;100.00
42603;BME280;28233;55.748;48.752;2023-04-26T00:29:47;98629.94;;;11.73;100.00
42603;BME280;28233;55.748;48.752;2023-04-26T00:31:50;98627.56;;;11.71;100.00
42603;BME280;28233;55.748;48.752;2023-04-26T00:33:53;98621.69;;;11.73;100.00
42603;BME280;28233;55.748;48.752;2023-04-26T00:35:56;98603.84;;;11.67;100.00
42603;BME280;28233;55.748;48.752;2023-04-26T00:37:59;98613.34;;;11.69;100.00
42603;BME280;28233;55.748;48.752;2023-04-26T00:40:02;98619.97;;;11.68;100.00
42603;BME280;28233;55.748;48.752;2023-04-26T00:42:06;98614.84;;;11.67;100.00
42603;BME280;28233;55.748;48.752;2023-04-26T00:44:08;98616.09;;;11.69;100.00
42603;BME280;28233;55.748;48.752;2023-04-26T00:46:11;98603.13;;;11.70;100.00
42603;BME280;28233;55.748;48.752;2023-04-26T00:48:14;98603.00;;;11.66;100.00
42603;BME280;28233;55.748;48.752;2023-04-26T00:50:18;98599.81;;;11.64;100.00
42603;BME280;28233;55.748;48.752;2023-04-26T00:52:21;98603.00;;;11.66;100.00
42603;BME280;28233;55.748;48.752;2023-04-26T00:54:24;98601.78;;;11.63;100.00
42603;BME280;28233;55.748;48.752;2023-04-26T00:56:28;98603.00;;;11.66;100.00
42603;BME280;28233;55.748;48.752;2023-04-26T00:58:31;98602.56;;;11.64;100.00
42603;BME280;28233;55.748;48.752;2023-04-26T01:00:34;98598.94;;;11.60;100.00
42603;BME280;28233;55.748;48.752;2023-04-26T01:02:37;98596.53;;;11.58;100.00
42603;BME280;28233;55.748;48.752;2023-04-26T01:04:40;98587.81;;;11.56;100.00
42603;BME280;28233;55.748;48.752;2023-04-26T01:06:44;98590.31;;;11.61;100.00
42603;BME280;28233;55.748;48.752;2023-04-26T01:08:49;98590.69;;;11.60;100.00
42603;BME280;28233;55.748;48.752;2023-04-26T01:10:54;98593.44;;;11.60;100.00
42603;BME280;28233;55.748;48.752;2023-04-26T01:12:58;98602.03;;;11.58;100.00
42603;BME280;28233;55.748;48.752;2023-04-26T01:15:03;98602.81;;;11.59;100.00
42603;BME280;28233;55.748;48.752;2023-04-26T01:17:07;98602.72;;;11.55;100.00
42603;BME280;28233;55.748;48.752;2023-04-26T01:19:11;98596.78;;;11.53;100.00
42603;BME280;28233;55.748;48.752;2023-04-26T01:21:19;98591.16;;;11.50;100.00
42603;BME280;28233;55.748;48.752;2023-04-26T01:23:23;98589.25;;;11.50;100.00
42603;BME280;28233;55.748;48.752;2023-04-26T01:25:25;98579.03;;;11.51;100.00
42603;BME280;28233;55.748;48.752;2023-04-26T01:27:28;98574.25;;;11.48;100.00
42603;BME280;28233;55.748;48.752;2023-04-26T01:29:32;98568.63;;;11.44;100.00
42603;BME280;28233;55.748;48.752;2023-04-26T01:31:34;98565.41;;;11.42;100.00
42603;BME280;28233;55.748;48.752;2023-04-26T01:33:38;98565.34;;;11.38;100.00
42603;BME280;28233;55.748;48.752;2023-04-26T01:35:41;98565.22;;;11.35;100.00
42603;BME280;28233;55.748;48.752;2023-04-26T01:37:43;98571.19;;;11.37;100.00
42603;BME280;28233;55.748;48.752;2023-04-26T01:39:46;98557.09;;;11.38;100.00
42603;BME280;28233;55.748;48.752;2023-04-26T01:41:49;98558.22;;;11.37;100.00
42603;BME280;28233;55.748;48.752;2023-04-26T01:43:52;98556.97;;;11.35;100.00
42603;BME280;28233;55.748;48.752;2023-04-26T01:45:55;98554.13;;;11.31;100.00
42603;BME280;28233;55.748;48.752;2023-04-26T01:47:57;98548.63;;;11.31;100.00
42603;BME280;28233;55.748;48.752;2023-04-26T01:50:00;98545.78;;;11.28;100.00
42603;BME280;28233;55.748;48.752;2023-04-26T01:52:04;98543.03;;;11.28;100.00
42603;BME280;28233;55.748;48.752;2023-04-26T01:54:07;98538.69;;;11.27;100.00
42603;BME280;28233;55.748;48.752;2023-04-26T01:56:10;98541.06;;;11.28;100.00
42603;BME280;28233;55.748;48.752;2023-04-26T01:58:13;98534.31;;;11.26;100.00
42603;BME280;28233;55.748;48.752;2023-04-26T02:00:16;98535.56;;;11.28;100.00
42603;BME280;28233;55.748;48.752;2023-04-26T02:02:18;98530.44;;;11.27;100.00
42603;BME280;28233;55.748;48.752;2023-04-26T02:04:22;98528.47;;;11.27;100.00
42603;BME280;28233;55.748;48.752;2023-04-26T02:06:25;98539.09;;;11.29;100.00
42603;BME280;28233;55.748;48.752;2023-04-26T02:08:28;98539.81;;;11.26;100.00
42603;BME280;28233;55.748;48.752;2023-04-26T02:10:31;98526.44;;;11.24;100.00
42603;BME280;28233;55.748;48.752;2023-04-26T02:12:35;98530.31;;;11.23;100.00
42603;BME280;28233;55.748;48.752;2023-04-26T02:14:38;98529.97;;;11.25;100.00
42603;BME280;28233;55.748;48.752;2023-04-26T02:16:41;98527.22;;;11.25;100.00
42603;BME280;28233;55.748;48.752;2023-04-26T02:18:44;98517.75;;;11.22;100.00
42603;BME280;28233;55.748;48.752;2023-04-26T02:20:47;98508.31;;;11.23;100.00
42603;BME280;28233;55.748;48.752;2023-04-26T02:22:50;98495.03;;;11.25;100.00
42603;BME280;28233;55.748;48.752;2023-04-26T02:24:53;98495.81;;;11.26;100.00
42603;BME280;28233;55.748;48.752;2023-04-26T02:26:56;98489.53;;;11.25;100.00
42603;BME280;28233;55.748;48.752;2023-04-26T02:29:04;98488.81;;;11.28;100.00
42603;BME280;28233;55.748;48.752;2023-04-26T02:31:08;98486.88;;;11.29;100.00
42603;BME280;28233;55.748;48.752;2023-04-26T02:33:10;98476.69;;;11.29;100.00
42603;BME280;28233;55.748;48.752;2023-04-26T02:35:13;98478.72;;;11.32;100.00
42603;BME280;28233;55.748;48.752;2023-04-26T02:37:16;98480.31;;;11.33;100.00
42603;BME280;28233;55.748;48.752;2023-04-26T02:39:19;98480.31;;;11.33;100.00
42603;BME280;28233;55.748;48.752;2023-04-26T02:41:22;98483.50;;;11.35;100.00
42603;BME280;28233;55.748;48.752;2023-04-26T02:43:26;98474.81;;;11.33;100.00
42603;BME280;28233;55.748;48.752;2023-04-26T02:45:29;98475.25;;;11.35;100.00
42603;BME280;28233;55.748;48.752;2023-04-26T02:47:32;98483.88;;;11.34;100.00
42603;BME280;28233;55.748;48.752;2023-04-26T02:49:38;98471.38;;;11.36;100.00
42603;BME280;28233;55.748;48.752;2023-04-26T02:51:40;98473.41;;;11.39;100.00
42603;BME280;28233;55.748;48.752;2023-04-26T02:53:43;98471.13;;;11.41;100.00
42603;BME280;28233;55.748;48.752;2023-04-26T02:55:46;98469.50;;;11.40;100.00
42603;BME280;28233;55.748;48.752;2023-04-26T02:57:49;98470.22;;;11.37;100.00
42603;BME280;28233;55.748;48.752;2023-04-26T02:59:51;98475.56;;;11.46;100.00
42603;BME280;28233;55.748;48.752;2023-04-26T03:01:54;98478.31;;;11.46;100.00
42603;BME280;28233;55.748;48.752;2023-04-26T03:03:57;98464.09;;;11.44;100.00
42603;BME280;28233;55.748;48.752;2023-04-26T03:06:00;98470.94;;;11.50;100.00
42603;BME280;28233;55.748;48.752;2023-04-26T03:08:03;98468.63;;;11.52;100.00
42603;BME280;28233;55.748;48.752;2023-04-26T03:10:06;98467.13;;;11.55;100.00
42603;BME280;28233;55.748;48.752;2023-04-26T03:12:11;98469.91;;;11.55;100.00
42603;BME280;28233;55.748;48.752;2023-04-26T03:14:14;98462.88;;;11.57;100.00
42603;BME280;28233;55.748;48.752;2023-04-26T03:16:21;98461.81;;;11.62;100.00
42603;BME280;28233;55.748;48.752;2023-04-26T03:18:25;98449.81;;;11.70;100.00
42603;BME280;28233;55.748;48.752;2023-04-26T03:20:27;98441.22;;;11.72;100.00
42603;BME280;28233;55.748;48.752;2023-04-26T03:22:31;98439.78;;;11.78;100.00
42603;BME280;28233;55.748;48.752;2023-04-26T03:24:35;98450.44;;;11.79;100.00
42603;BME280;28233;55.748;48.752;2023-04-26T03:26:41;98434.81;;;11.83;100.00
42603;BME280;28233;55.748;48.752;2023-04-26T03:28:43;98437.69;;;11.87;100.00
42603;BME280;28233;55.748;48.752;2023-04-26T03:30:46;98429.06;;;11.89;100.00
42603;BME280;28233;55.748;48.752;2023-04-26T03:32:51;98431.09;;;11.92;100.00
42603;BME280;28233;55.748;48.752;2023-04-26T03:34:54;98426.94;;;11.98;100.00
42603;BME280;28233;55.748;48.752;2023-04-26T03:37:01;98426.16;;;11.97;100.00
42603;BME280;28233;55.748;48.752;2023-04-26T03:39:04;98435.63;;;12.00;100.00
42603;BME280;28233;55.748;48.752;2023-04-26T03:41:07;98432.31;;;12.10;100.00
42603;BME280;28233;55.748;48.752;2023-04-26T03:43:10;98419.16;;;12.19;100.00
42603;BME280;28233;55.748;48.752;2023-04-26T03:45:13;98425.56;;;12.23;100.00
42603;BME280;28233;55.748;48.752;2023-04-26T03:47:15;98423.50;;;12.20;100.00
42603;BME280;28233;55.748;48.752;2023-04-26T03:49:18;98425.47;;;12.20;100.00
42603;BME280;28233;55.748;48.752;2023-04-26T03:51:21;98421.91;;;12.19;100.00
42603;BME280;28233;55.748;48.752;2023-04-26T03:53:24;98416.84;;;12.21;100.00
42603;BME280;28233;55.748;48.752;2023-04-26T03:55:26;98424.75;;;12.23;100.00
42603;BME280;28233;55.748;48.752;2023-04-26T03:57:29;98424.38;;;12.24;100.00
42603;BME280;28233;55.748;48.752;2023-04-26T03:59:32;98420.94;;;12.27;100.00
42603;BME280;28233;55.748;48.752;2023-04-26T04:01:35;98408.00;;;12.32;100.00
42603;BME280;28233;55.748;48.752;2023-04-26T04:03:38;98412.00;;;12.34;100.00
42603;BME280;28233;55.748;48.752;2023-04-26T04:05:43;98412.16;;;12.41;100.00
42603;BME280;28233;55.748;48.752;2023-04-26T04:07:46;98415.16;;;12.52;100.00
42603;BME280;28233;55.748;48.752;2023-04-26T04:09:49;98417.97;;;12.56;100.00
42603;BME280;28233;55.748;48.752;2023-04-26T04:11:52;98408.25;;;12.62;100.00
42603;BME280;28233;55.748;48.752;2023-04-26T04:13:56;98409.56;;;12.68;100.00
42603;BME280;28233;55.748;48.752;2023-04-26T04:15:58;98415.53;;;12.70;100.00
42603;BME280;28233;55.748;48.752;2023-04-26T04:18:02;98413.47;;;12.67;99.71
42603;BME280;28233;55.748;48.752;2023-04-26T04:20:06;98402.41;;;12.63;99.83
42603;BME280;28233;55.748;48.752;2023-04-26T04:22:09;98403.69;;;12.69;99.01
42603;BME280;28233;55.748;48.752;2023-04-26T04:24:12;98398.16;;;12.69;98.62
42603;BME280;28233;55.748;48.752;2023-04-26T04:26:15;98386.22;;;12.62;98.52
42603;BME280;28233;55.748;48.752;2023-04-26T04:28:18;98385.84;;;12.63;97.64
42603;BME280;28233;55.748;48.752;2023-04-26T04:30:21;98387.75;;;12.59;97.89
42603;BME280;28233;55.748;48.752;2023-04-26T04:32:25;98400.34;;;12.60;97.25
42603;BME280;28233;55.748;48.752;2023-04-26T04:34:35;98391.22;;;12.56;96.94
42603;BME280;28233;55.748;48.752;2023-04-26T04:36:40;98397.88;;;12.55;96.75
42603;BME280;28233;55.748;48.752;2023-04-26T04:38:43;98385.72;;;12.56;96.97
42603;BME280;28233;55.748;48.752;2023-04-26T04:40:49;98394.41;;;12.58;96.70
42603;BME280;28233;55.748;48.752;2023-04-26T04:42:52;98389.63;;;12.55;97.25
42603;BME280;28233;55.748;48.752;2023-04-26T04:44:56;98388.09;;;12.58;97.02
42603;BME280;28233;55.748;48.752;2023-04-26T04:47:01;98388.09;;;12.58;96.88
42603;BME280;28233;55.748;48.752;2023-04-26T04:49:04;98378.97;;;12.54;97.29
42603;BME280;28233;55.748;48.752;2023-04-26T04:51:07;98385.34;;;12.58;97.07
42603;BME280;28233;55.748;48.752;2023-04-26T04:53:09;98371.56;;;12.58;97.45
42603;BME280;28233;55.748;48.752;2023-04-26T04:55:14;98362.84;;;12.56;97.54
42603;BME280;28233;55.748;48.752;2023-04-26T04:57:16;98360.47;;;12.54;97.65
42603;BME280;28233;55.748;48.752;2023-04-26T04:59:20;98360.25;;;12.43;96.90
42603;BME280;28233;55.748;48.752;2023-04-26T05:01:22;98366.19;;;12.45;97.39
42603;BME280;28233;55.748;48.752;2023-04-26T05:03:25;98378.75;;;12.43;98.12
42603;BME280;28233;55.748;48.752;2023-04-26T05:05:28;98361.78;;;12.41;98.75
42603;BME280;28233;55.748;48.752;2023-04-26T05:07:31;98361.34;;;12.39;98.88
42603;BME280;28233;55.748;48.752;2023-04-26T05:09:34;98362.16;;;12.39;98.60
42603;BME280;28233;55.748;48.752;2023-04-26T05:11:36;98361.03;;;12.44;99.37
42603;BME280;28233;55.748;48.752;2023-04-26T05:13:39;98361.63;;;12.53;98.95
42603;BME280;28233;55.748;48.752;2023-04-26T05:15:42;98357.34;;;12.56;98.87
42603;BME280;28233;55.748;48.752;2023-04-26T05:17:45;98355.09;;;12.61;98.98
42603;BME280;28233;55.748;48.752;2023-04-26T05:19:48;98350.38;;;12.62;99.14
42603;BME280;28233;55.748;48.752;2023-04-26T05:21:51;98348.50;;;12.66;98.67
42603;BME280;28233;55.748;48.752;2023-04-26T05:23:54;98356.47;;;12.71;97.26
42603;BME280;28233;55.748;48.752;2023-04-26T05:26:00;98351.44;;;12.77;97.64
42603;BME280;28233;55.748;48.752;2023-04-26T05:28:04;98353.41;;;12.76;97.82
42603;BME280;28233;55.748;48.752;2023-04-26T05:30:08;98352.28;;;12.77;96.97
42603;BME280;28233;55.748;48.752;2023-04-26T05:32:10;98349.22;;;12.82;96.93
42603;BME280;28233;55.748;48.752;2023-04-26T05:34:14;98345.59;;;12.78;97.03
42603;BME280;28233;55.748;48.752;2023-04-26T05:36:16;98336.66;;;12.85;96.89
42603;BME280;28233;55.748;48.752;2023-04-26T05:38:20;98344.69;;;12.94;96.37
42603;BME280;28233;55.748;48.752;2023-04-26T05:40:23;98341.50;;;12.92;95.89
42603;BME280;28233;55.748;48.752;2023-04-26T05:42:26;98338.31;;;12.89;94.70
42603;BME280;28233;55.748;48.752;2023-04-26T05:44:28;98342.31;;;12.92;94.53
42603;BME280;28233;55.748;48.752;2023-04-26T05:46:31;98338.38;;;12.93;94.50
42603;BME280;28233;55.748;48.752;2023-04-26T05:48:34;98342.50;;;13.03;92.92
42603;BME280;28233;55.748;48.752;2023-04-26T05:50:37;98336.00;;;13.15;93.10
42603;BME280;28233;55.748;48.752;2023-04-26T05:52:41;98327.00;;;13.18;92.63
42603;BME280;28233;55.748;48.752;2023-04-26T05:54:44;98333.00;;;13.23;91.50
42603;BME280;28233;55.748;48.752;2023-04-26T05:56:46;98336.00;;;13.15;92.52
42603;BME280;28233;55.748;48.752;2023-04-26T05:58:49;98331.72;;;13.17;92.08
42603;BME280;28233;55.748;48.752;2023-04-26T06:00:54;98328.88;;;13.14;92.09
42603;BME280;28233;55.748;48.752;2023-04-26T06:02:57;98330.19;;;13.20;91.04
42603;BME280;28233;55.748;48.752;2023-04-26T06:05:01;98331.72;;;13.17;91.61
42603;BME280;28233;55.748;48.752;2023-04-26T06:07:05;98332.50;;;13.18;91.56
42603;BME280;28233;55.748;48.752;2023-04-26T06:09:08;98324.34;;;13.25;90.92
42603;BME280;28233;55.748;48.752;2023-04-26T06:11:11;98328.78;;;13.29;91.67
42603;BME280;28233;55.748;48.752;2023-04-26T06:13:14;98326.81;;;13.30;91.34
42603;BME280;28233;55.748;48.752;2023-04-26T06:15:17;98326.09;;;13.33;91.04
42603;BME280;28233;55.748;48.752;2023-04-26T06:17:19;98319.63;;;13.25;91.39
42603;BME280;28233;55.748;48.752;2023-04-26T06:19:22;98317.53;;;13.19;92.11
42603;BME280;28233;55.748;48.752;2023-04-26T06:21:25;98320.69;;;13.17;91.96
42603;BME280;28233;55.748;48.752;2023-04-26T06:23:28;98321.03;;;13.16;93.07
42603;BME280;28233;55.748;48.752;2023-04-26T06:25:31;98320.56;;;13.10;93.80
42603;BME280;28233;55.748;48.752;2023-04-26T06:27:35;98323.13;;;12.99;95.24
42603;BME280;28233;55.748;48.752;2023-04-26T06:29:38;98316.75;;;12.95;94.62
42603;BME280;28233;55.748;48.752;2023-04-26T06:31:40;98322.78;;;13.01;95.32
42603;BME280;28233;55.748;48.752;2023-04-26T06:33:43;98322.47;;;13.06;96.07
42603;BME280;28233;55.748;48.752;2023-04-26T06:35:46;98322.50;;;13.09;97.07
42603;BME280;28233;55.748;48.752;2023-04-26T06:37:49;98324.47;;;13.09;97.25
42603;BME280;28233;55.748;48.752;2023-04-26T06:39:52;98321.28;;;13.07;97.29
42603;BME280;28233;55.748;48.752;2023-04-26T06:41:55;98335.47;;;13.05;97.50
42603;BME280;28233;55.748;48.752;2023-04-26T06:43:58;98331.88;;;13.05;98.44
42603;BME280;28233;55.748;48.752;2023-04-26T06:46:00;98330.00;;;13.09;98.18
42603;BME280;28233;55.748;48.752;2023-04-26T06:48:03;98328.53;;;13.15;98.50
42603;BME280;28233;55.748;48.752;2023-04-26T06:50:07;98327.13;;;13.25;98.08
42603;BME280;28233;55.748;48.752;2023-04-26T06:52:10;98327.19;;;13.28;98.35
42603;BME280;28233;55.748;48.752;2023-04-26T06:54:13;98321.00;;;13.35;98.42
42603;BME280;28233;55.748;48.752;2023-04-26T06:56:16;98316.88;;;13.48;97.76
42603;BME280;28233;55.748;48.752;2023-04-26T06:58:19;98317.56;;;13.68;97.44
42603;BME280;28233;55.748;48.752;2023-04-26T07:00:22;98300.06;;;13.84;97.16
42603;BME280;28233;55.748;48.752;2023-04-26T07:02:25;98307.72;;;13.98;95.83
42603;BME280;28233;55.748;48.752;2023-04-26T07:04:28;98305.94;;;14.12;95.29
42603;BME280;28233;55.748;48.752;2023-04-26T07:06:31;98309.31;;;14.29;94.98
42603;BME280;28233;55.748;48.752;2023-04-26T07:08:34;98314.63;;;14.45;93.95
42603;BME280;28233;55.748;48.752;2023-04-26T07:10:40;98310.44;;;14.54;92.55
42603;BME280;28233;55.748;48.752;2023-04-26T07:12:43;98317.00;;;14.46;92.55
42603;BME280;28233;55.748;48.752;2023-04-26T07:14:46;98317.34;;;14.41;92.11
42603;BME280;28233;55.748;48.752;2023-04-26T07:16:49;98302.78;;;14.44;90.31
42603;BME280;28233;55.748;48.752;2023-04-26T07:18:51;98307.19;;;14.49;91.42
42603;BME280;28233;55.748;48.752;2023-04-26T07:20:54;98305.25;;;14.53;89.84
42603;BME280;28233;55.748;48.752;2023-04-26T07:22:57;98322.00;;;14.64;89.81
42603;BME280;28233;55.748;48.752;2023-04-26T07:25:00;98318.44;;;14.63;89.79
42603;BME280;28233;55.748;48.752;2023-04-26T07:27:04;98325.97;;;14.66;89.76
42603;BME280;28233;55.748;48.752;2023-04-26T07:29:07;98321.69;;;14.72;90.27
42603;BME280;28233;55.748;48.752;2023-04-26T07:31:10;98326.13;;;14.80;89.77
42603;BME280;28233;55.748;48.752;2023-04-26T07:33:12;98314.28;;;14.84;90.18
42603;BME280;28233;55.748;48.752;2023-04-26T07:35:15;98317.03;;;14.80;89.77
42603;BME280;28233;55.748;48.752;2023-04-26T07:37:18;98307.97;;;14.83;89.48
42603;BME280;28233;55.748;48.752;2023-04-26T07:39:21;98315.47;;;14.83;89.49
42603;BME280;28233;55.748;48.752;2023-04-26T07:41:24;98314.28;;;14.84;89.71
42603;BME280;28233;55.748;48.752;2023-04-26T07:43:27;98311.44;;;14.76;88.40
42603;BME280;28233;55.748;48.752;2023-04-26T07:45:31;98311.03;;;14.74;88.33
42603;BME280;28233;55.748;48.752;2023-04-26T07:47:34;98316.97;;;14.73;88.90
42603;BME280;28233;55.748;48.752;2023-04-26T07:49:37;98315.81;;;14.77;89.26
42603;BME280;28233;55.748;48.752;2023-04-26T07:51:42;98315.06;;;14.80;88.26
42603;BME280;28233;55.748;48.752;2023-04-26T07:53:45;98320.63;;;14.84;87.44
42603;BME280;28233;55.748;48.752;2023-04-26T07:55:49;98316.72;;;14.89;86.46
42603;BME280;28233;55.748;48.752;2023-04-26T07:57:53;98325.78;;;14.86;85.89
42603;BME280;28233;55.748;48.752;2023-04-26T07:59:56;98310.31;;;14.81;85.72
42603;BME280;28233;55.748;48.752;2023-04-26T08:01:59;98315.06;;;14.80;85.83
42603;BME280;28233;55.748;48.752;2023-04-26T08:04:03;98310.38;;;14.85;86.39
42603;BME280;28233;55.748;48.752;2023-04-26T08:06:07;98306.91;;;14.95;87.16
42603;BME280;28233;55.748;48.752;2023-04-26T08:08:13;98307.06;;;15.13;87.27
42603;BME280;28233;55.748;48.752;2023-04-26T08:10:17;98305.56;;;15.22;86.91
42603;BME280;28233;55.748;48.752;2023-04-26T08:12:21;98306.84;;;15.32;86.15
42603;BME280;28233;55.748;48.752;2023-04-26T08:14:24;98304.59;;;15.45;85.53
42603;BME280;28233;55.748;48.752;2023-04-26T08:16:26;98300.66;;;15.53;85.01
42603;BME280;28233;55.748;48.752;2023-04-26T08:18:29;98295.50;;;15.52;84.18
42603;BME280;28233;55.748;48.752;2023-04-26T08:20:32;98307.03;;;15.57;83.84
42603;BME280;28233;55.748;48.752;2023-04-26T08:22:35;98305.94;;;15.69;82.83
42603;BME280;28233;55.748;48.752;2023-04-26T08:24:37;98295.31;;;15.75;82.85
42603;BME280;28233;55.748;48.752;2023-04-26T08:26:40;98291.06;;;15.95;82.74
42603;BME280;28233;55.748;48.752;2023-04-26T08:28:43;98280.91;;;16.21;83.17
42603;BME280;28233;55.748;48.752;2023-04-26T08:30:45;98285.34;;;16.40;81.88
42603;BME280;28233;55.748;48.752;2023-04-26T08:32:48;98287.75;;;16.52;80.76
42603;BME280;28233;55.748;48.752;2023-04-26T08:34:51;98281.84;;;16.68;80.47
42603;BME280;28233;55.748;48.752;2023-04-26T08:36:54;98271.16;;;16.63;79.14
42603;BME280;28233;55.748;48.752;2023-04-26T08:38:56;98279.09;;;16.75;79.03
42603;BME280;28233;55.748;48.752;2023-04-26T08:40:59;98278.38;;;16.96;77.65
42603;BME280;28233;55.748;48.752;2023-04-26T08:43:03;98293.41;;;17.09;76.92
42603;BME280;28233;55.748;48.752;2023-04-26T08:45:08;98286.31;;;17.23;76.71
42603;BME280;28233;55.748;48.752;2023-04-26T08:47:28;98286.72;;;17.36;75.46
42603;BME280;28233;55.748;48.752;2023-04-26T08:49:41;98300.19;;;17.33;72.15
42603;BME280;28233;55.748;48.752;2023-04-26T08:51:44;98302.16;;;17.33;71.89
42603;BME280;28233;55.748;48.752;2023-04-26T08:53:49;98297.00;;;17.24;72.11
42603;BME280;28233;55.748;48.752;2023-04-26T08:55:55;98297.41;;;17.23;72.36
42603;BME280;28233;55.748;48.752;2023-04-26T08:57:59;98302.97;;;17.19;72.96
42603;BME280;28233;55.748;48.752;2023-04-26T09:00:04;98297.00;;;17.03;73.56
42603;BME280;28233;55.748;48.752;2023-04-26T09:02:11;98295.00;;;16.93;73.48
42603;BME280;28233;55.748;48.752;2023-04-26T09:04:18;98298.94;;;16.88;74.70
42603;BME280;28233;55.748;48.752;2023-04-26T09:06:22;98293.41;;;16.84;73.76
42603;BME280;28233;55.748;48.752;2023-04-26T09:08:25;98304.50;;;16.84;73.10
42603;BME280;28233;55.748;48.752;2023-04-26T09:10:29;98292.16;;;16.71;73.44
42603;BME280;28233;55.748;48.752;2023-04-26T09:12:33;98293.75;;;16.76;74.43
42603;BME280;28233;55.748;48.752;2023-04-26T09:14:37;98285.03;;;16.74;73.46
42603;BME280;28233;55.748;48.752;2023-04-26T09:16:40;98283.91;;;16.96;74.19
42603;BME280;28233;55.748;48.752;2023-04-26T09:18:48;98279.16;;;17.25;75.03
42603;BME280;28233;55.748;48.752;2023-04-26T09:21:05;98278.38;;;17.43;73.56
42603;BME280;28233;55.748;48.752;2023-04-26T09:23:09;98266.44;;;17.57;74.26
42603;BME280;28233;55.748;48.752;2023-04-26T09:25:12;98275.16;;;17.66;73.12
42603;BME280;28233;55.748;48.752;2023-04-26T09:27:18;98256.91;;;17.72;71.38
42603;BME280;28233;55.748;48.752;2023-04-26T09:29:20;98265.22;;;17.68;70.21
42603;BME280;28233;55.748;48.752;2023-04-26T09:31:37;98265.25;;;17.61;68.50
42603;BME280;28233;55.748;48.752;2023-04-26T09:33:58;98257.72;;;17.51;68.71
42603;BME280;28233;55.748;48.752;2023-04-26T09:36:11;98252.16;;;17.62;69.70
42603;BME280;28233;55.748;48.752;2023-04-26T09:38:17;98257.72;;;17.62;70.09
42603;BME280;28233;55.748;48.752;2023-04-26T09:40:20;98256.53;;;17.59;69.67
42603;BME280;28233;55.748;48.752;2023-04-26T09:42:23;98248.94;;;17.78;70.29
42603;BME280;28233;55.748;48.752;2023-04-26T09:44:28;98251.34;;;17.75;69.49
42603;BME280;28233;55.748;48.752;2023-04-26T09:46:32;98255.75;;;17.48;69.38
42603;BME280;28233;55.748;48.752;2023-04-26T09:48:35;98249.41;;;17.47;69.45
42603;BME280;28233;55.748;48.752;2023-04-26T09:50:37;98240.22;;;17.68;70.57
42603;BME280;28233;55.748;48.752;2023-04-26T09:52:43;98239.84;;;17.73;68.84
42603;BME280;28233;55.748;48.752;2023-04-26T09:54:48;98237.84;;;17.70;67.38
42603;BME280;28233;55.748;48.752;2023-04-26T09:56:59;98231.88;;;17.68;67.06
42603;BME280;28233;55.748;48.752;2023-04-26T09:59:05;98230.69;;;17.84;68.40
42603;BME280;28233;55.748;48.752;2023-04-26T10:01:10;98219.91;;;17.96;67.99
42603;BME280;28233;55.748;48.752;2023-04-26T10:03:18;98215.50;;;18.13;67.18
42603;BME280;28233;55.748;48.752;2023-04-26T10:05:22;98217.03;;;18.22;66.25
42603;BME280;28233;55.748;48.752;2023-04-26T10:07:25;98220.59;;;18.22;64.69
42603;BME280;28233;55.748;48.752;2023-04-26T10:09:28;98223.50;;;18.04;63.91
42603;BME280;28233;55.748;48.752;2023-04-26T10:11:30;98221.09;;;18.06;65.00
42603;BME280;28233;55.748;48.752;2023-04-26T10:13:35;98213.56;;;18.03;64.50
42603;BME280;28233;55.748;48.752;2023-04-26T10:15:39;98215.56;;;17.99;63.98
42603;BME280;28233;55.748;48.752;2023-04-26T10:17:42;98213.97;;;18.02;63.60
42603;BME280;28233;55.748;48.752;2023-04-26T10:19:47;98218.28;;;18.13;62.44
42603;BME280;28233;55.748;48.752;2023-04-26T10:21:56;98215.88;;;18.19;63.32
42603;BME280;28233;55.748;48.752;2023-04-26T10:24:02;98208.28;;;18.27;61.98
42603;BME280;28233;55.748;48.752;2023-04-26T10:26:05;98209.09;;;18.20;61.90
42603;BME280;28233;55.748;48.752;2023-04-26T10:28:08;98215.97;;;17.98;61.50
42603;BME280;28233;55.748;48.752;2023-04-26T10:30:15;98225.50;;;17.89;62.47
42603;BME280;28233;55.748;48.752;2023-04-26T10:32:20;98209.22;;;17.91;61.95
42603;BME280;28233;55.748;48.752;2023-04-26T10:34:23;98214.38;;;18.00;62.16
42603;BME280;28233;55.748;48.752;2023-04-26T10:36:25;98211.56;;;18.04;61.77
42603;BME280;28233;55.748;48.752;2023-04-26T10:38:29;98205.16;;;18.17;62.35
42603;BME280;28233;55.748;48.752;2023-04-26T10:40:36;98215.03;;;18.26;60.92
42603;BME280;28233;55.748;48.752;2023-04-26T10:42:40;98211.41;;;18.36;61.79